createdAt,value
2023-03-05T00:00:09.450Z,29.34
2023-03-05T00:01:07.893Z,28.26
2023-03-05T00:02:07.063Z,27.96
2023-03-05T00:03:04.457Z,28.40
2023-03-05T00:04:03.535Z,27.28
2023-03-05T00:05:00.896Z,27.53
2023-03-05T00:05:58.445Z,27.32
2023-03-05T00:06:55.815Z,25.88
2023-03-05T00:07:53.212Z,25.37
2023-03-05T00:08:51.876Z,25.32
2023-03-05T00:09:49.222Z,25.29
2023-03-05T00:10:46.598Z,26.67
2023-03-05T00:11:44.047Z,26.87
2023-03-05T00:12:41.402Z,27.41
2023-03-05T00:13:39.480Z,28.27
2023-03-05T00:14:36.889Z,26.98
2023-03-05T00:15:34.205Z,26.44
2023-03-05T00:16:32.272Z,27.29
2023-03-05T00:17:29.760Z,27.50
2023-03-05T00:18:27.116Z,27.20
2023-03-05T00:19:24.511Z,26.77
2023-03-05T00:20:21.815Z,27.41
2023-03-05T00:21:24.445Z,26.75
2023-03-05T00:22:21.826Z,27.99
2023-03-05T00:23:19.141Z,27.75
2023-03-05T00:24:18.371Z,27.66
2023-03-05T00:25:15.772Z,25.72
2023-03-05T00:26:13.163Z,25.34
2023-03-05T00:27:10.884Z,27.28
2023-03-05T00:28:08.386Z,28.61
2023-03-05T00:29:07.210Z,35.62
2023-03-05T00:30:04.755Z,35.66
2023-03-05T00:31:02.270Z,33.70
2023-03-05T00:31:59.663Z,35.97
2023-03-05T00:32:57.073Z,36.29
2023-03-05T00:33:55.565Z,37.21
2023-03-05T00:34:52.909Z,37.78
2023-03-05T00:35:50.293Z,35.20
2023-03-05T00:36:49.350Z,34.30
2023-03-05T00:37:46.773Z,35.97
2023-03-05T00:38:44.166Z,37.88
2023-03-05T00:39:41.530Z,38.07
2023-03-05T00:40:40.143Z,38.38
2023-03-05T00:41:38.042Z,37.59
2023-03-05T00:42:38.650Z,36.78
2023-03-05T00:43:36.023Z,37.78
2023-03-05T00:44:33.385Z,37.58
2023-03-05T00:45:30.777Z,36.44
2023-03-05T00:46:28.895Z,37.39
2023-03-05T00:47:26.451Z,36.87
2023-03-05T00:48:23.920Z,37.46
2023-03-05T00:49:21.421Z,36.28
2023-03-05T00:50:18.845Z,35.65
2023-03-05T00:51:16.185Z,35.80
2023-03-05T00:52:13.552Z,36.62
2023-03-05T00:53:11.059Z,36.86
2023-03-05T00:54:08.620Z,37.43
2023-03-05T00:55:06.117Z,38.10
2023-03-05T00:56:03.689Z,38.42
2023-03-05T00:57:01.071Z,38.48
2023-03-05T00:57:58.462Z,38.04
2023-03-05T00:58:56.204Z,38.91
2023-03-05T00:59:53.573Z,39.78
2023-03-05T01:00:51.089Z,38.36
2023-03-05T01:01:48.492Z,37.95
2023-03-05T01:02:45.873Z,36.50
2023-03-05T01:03:43.394Z,33.91
2023-03-05T01:04:40.934Z,33.39
2023-03-05T01:05:38.321Z,34.37
2023-03-05T01:06:35.681Z,34.59
2023-03-05T01:07:33.085Z,38.84
2023-03-05T01:08:30.461Z,38.36
2023-03-05T01:09:27.996Z,38.25
2023-03-05T01:10:26.840Z,36.83
2023-03-05T01:11:24.289Z,34.79
2023-03-05T01:12:22.008Z,35.44
2023-03-05T01:13:19.850Z,36.67
2023-03-05T01:14:17.485Z,36.40
2023-03-05T01:15:14.942Z,36.33
2023-03-05T01:16:12.323Z,34.33
2023-03-05T01:17:09.756Z,33.58
2023-03-05T01:18:07.141Z,34.09
2023-03-05T01:19:04.515Z,33.57
2023-03-05T01:20:02.013Z,33.97
2023-03-05T01:20:59.457Z,34.36
2023-03-05T01:21:56.945Z,35.29
2023-03-05T01:22:54.648Z,34.87
2023-03-05T01:23:52.532Z,34.36
2023-03-05T01:24:49.944Z,33.45
2023-03-05T01:25:53.588Z,31.92
2023-03-05T01:26:51.616Z,32.76
2023-03-05T01:27:48.933Z,32.55
2023-03-05T01:28:46.270Z,30.83
2023-03-05T01:29:43.618Z,31.28
2023-03-05T01:30:40.930Z,32.23
2023-03-05T01:31:38.419Z,31.99
2023-03-05T01:32:36.168Z,31.40
2023-03-05T01:33:33.557Z,30.71
2023-03-05T01:34:30.899Z,31.00
2023-03-05T01:35:28.612Z,29.58
2023-03-05T01:36:26.244Z,29.12
2023-03-05T01:37:23.553Z,29.81
2023-03-05T01:38:20.871Z,29.99
2023-03-05T01:39:18.258Z,30.62
2023-03-05T01:40:17.425Z,30.51
2023-03-05T01:41:15.874Z,30.36
2023-03-05T01:42:13.299Z,30.49
2023-03-05T01:43:10.973Z,30.22
2023-03-05T01:44:17.718Z,29.87
2023-03-05T01:45:17.925Z,30.19
2023-03-05T01:46:16.745Z,29.22
2023-03-05T01:47:14.040Z,30.12
2023-03-05T01:48:11.391Z,30.68
2023-03-05T01:49:11.450Z,29.64
2023-03-05T01:50:11.429Z,30.14
2023-03-05T01:51:08.867Z,28.28
2023-03-05T01:52:11.226Z,28.90
2023-03-05T01:53:08.639Z,29.96
2023-03-05T01:54:08.704Z,29.97
2023-03-05T01:55:08.735Z,29.66
2023-03-05T01:56:06.606Z,29.61
2023-03-05T01:57:08.693Z,28.35
2023-03-05T01:58:12.840Z,28.79
2023-03-05T01:59:11.395Z,28.13
2023-03-05T02:00:11.890Z,28.58
2023-03-05T02:01:09.911Z,29.71
2023-03-05T02:02:08.248Z,29.40
2023-03-05T02:03:07.950Z,29.55
2023-03-05T02:04:07.186Z,30.86
2023-03-05T02:05:07.160Z,29.94
2023-03-05T02:06:04.631Z,28.85
2023-03-05T02:07:02.607Z,29.78
2023-03-05T02:08:01.119Z,27.62
2023-03-05T02:08:59.593Z,27.59
2023-03-05T02:09:57.001Z,27.64
2023-03-05T02:10:56.529Z,28.33
2023-03-05T02:11:54.104Z,27.04
2023-03-05T02:12:53.338Z,27.71
2023-03-05T02:13:50.684Z,26.69
2023-03-05T02:14:50.446Z,26.96
2023-03-05T02:15:49.770Z,27.57
2023-03-05T02:16:47.296Z,27.51
2023-03-05T02:17:45.284Z,27.16
2023-03-05T02:18:42.658Z,27.70
2023-03-05T02:19:54.759Z,27.58
2023-03-05T02:20:56.406Z,27.65
2023-03-05T02:21:54.091Z,27.26
2023-03-05T02:22:51.749Z,27.51
2023-03-05T02:23:49.098Z,26.83
2023-03-05T02:24:47.120Z,26.27
2023-03-05T02:25:44.634Z,27.04
2023-03-05T02:26:44.805Z,26.79
2023-03-05T02:27:45.547Z,26.68
2023-03-05T02:28:44.870Z,27.59
2023-03-05T02:29:45.644Z,26.87
2023-03-05T02:30:43.030Z,28.42
2023-03-05T02:31:40.459Z,26.74
2023-03-05T02:32:37.856Z,26.65
2023-03-05T02:33:35.294Z,27.44
2023-03-05T02:34:32.630Z,28.80
2023-03-05T02:35:29.992Z,28.38
2023-03-05T02:36:27.392Z,28.98
2023-03-05T02:37:24.716Z,27.37
2023-03-05T02:38:22.176Z,28.66
2023-03-05T02:39:19.543Z,28.21
2023-03-05T02:40:17.027Z,26.82
2023-03-05T02:41:14.663Z,28.20
2023-03-05T02:42:12.100Z,29.33
2023-03-05T02:43:09.799Z,28.84
2023-03-05T02:44:07.121Z,27.61
2023-03-05T02:45:05.181Z,27.63
2023-03-05T02:46:02.695Z,26.75
2023-03-05T02:47:00.199Z,27.38
2023-03-05T02:47:57.582Z,28.03
2023-03-05T02:48:54.955Z,27.53
2023-03-05T02:49:52.412Z,28.06
2023-03-05T02:50:49.904Z,28.94
2023-03-05T02:51:47.232Z,27.42
2023-03-05T02:52:44.615Z,27.67
2023-03-05T02:53:41.936Z,27.95
2023-03-05T02:54:39.244Z,28.87
2023-03-05T02:55:36.685Z,28.75
2023-03-05T02:56:33.991Z,27.24
2023-03-05T02:57:31.400Z,27.22
2023-03-05T02:58:28.846Z,26.93
2023-03-05T02:59:26.144Z,26.95
2023-03-05T03:00:23.555Z,26.87
2023-03-05T03:01:21.075Z,27.94
2023-03-05T03:02:18.530Z,28.47
2023-03-05T03:03:15.880Z,28.36
2023-03-05T03:04:13.288Z,29.54
2023-03-05T03:05:10.675Z,30.36
2023-03-05T03:06:08.064Z,29.85
2023-03-05T03:07:05.491Z,30.54
2023-03-05T03:08:03.428Z,31.12
2023-03-05T03:09:00.776Z,29.77
2023-03-05T03:09:58.101Z,30.15
2023-03-05T03:10:56.550Z,29.72
2023-03-05T03:11:53.906Z,29.59
2023-03-05T03:12:51.276Z,27.51
2023-03-05T03:13:48.644Z,28.84
2023-03-05T03:14:46.115Z,28.52
2023-03-05T03:15:43.548Z,26.78
2023-03-05T03:16:40.906Z,27.61
2023-03-05T03:17:38.858Z,28.13
2023-03-05T03:18:36.387Z,27.98
2023-03-05T03:19:33.841Z,28.79
2023-03-05T03:20:31.414Z,28.12
2023-03-05T03:21:28.751Z,28.44
2023-03-05T03:22:26.157Z,28.54
2023-03-05T03:23:23.806Z,28.78
2023-03-05T03:24:21.362Z,30.31
2023-03-05T03:25:21.594Z,30.66
2023-03-05T03:26:19.402Z,32.65
2023-03-05T03:27:16.795Z,32.70
2023-03-05T03:28:14.126Z,31.10
2023-03-05T03:29:11.439Z,31.10
2023-03-05T03:30:09.155Z,32.19
2023-03-05T03:31:06.633Z,31.55
2023-03-05T03:32:04.815Z,31.58
2023-03-05T03:33:02.200Z,32.76
2023-03-05T03:33:59.531Z,33.29
2023-03-05T03:34:57.512Z,32.82
2023-03-05T03:35:54.945Z,32.81
2023-03-05T03:36:55.516Z,30.77
2023-03-05T03:37:52.839Z,31.12
2023-03-05T03:38:50.240Z,32.35
2023-03-05T03:39:47.626Z,31.71
2023-03-05T03:40:45.039Z,31.88
2023-03-05T03:41:43.988Z,31.95
2023-03-05T03:42:41.320Z,32.68
2023-03-05T03:43:38.654Z,33.12
2023-03-05T03:44:35.967Z,32.69
2023-03-05T03:45:33.633Z,34.25
2023-03-05T03:46:31.117Z,34.34
2023-03-05T03:47:29.264Z,32.80
2023-03-05T03:48:26.620Z,34.32
2023-03-05T03:49:25.863Z,34.50
2023-03-05T03:50:25.001Z,34.97
2023-03-05T03:51:22.416Z,34.47
2023-03-05T03:52:19.787Z,34.77
2023-03-05T03:53:17.563Z,35.41
2023-03-05T03:54:16.217Z,35.46
2023-03-05T03:55:13.563Z,34.97
2023-03-05T03:56:10.960Z,35.34
2023-03-05T03:57:08.327Z,35.56
2023-03-05T03:58:05.638Z,36.28
2023-03-05T03:59:03.105Z,35.12
2023-03-05T04:00:00.557Z,35.31
2023-03-05T04:00:57.881Z,34.62
2023-03-05T04:01:55.347Z,35.00
2023-03-05T04:02:52.779Z,35.63
2023-03-05T04:03:50.148Z,36.43
2023-03-05T04:04:47.476Z,34.14
2023-03-05T04:05:44.802Z,34.05
2023-03-05T04:06:42.846Z,33.41
2023-03-05T04:07:40.226Z,34.36
2023-03-05T04:08:37.554Z,34.81
2023-03-05T04:09:34.948Z,34.74
2023-03-05T04:10:32.285Z,33.82
2023-03-05T04:11:29.620Z,33.76
2023-03-05T04:12:26.917Z,33.46
2023-03-05T04:13:24.310Z,33.59
2023-03-05T04:14:21.624Z,33.76
2023-03-05T04:15:19.555Z,33.61
2023-03-05T04:16:17.669Z,34.70
2023-03-05T04:17:16.047Z,34.28
2023-03-05T04:18:13.411Z,32.86
2023-03-05T04:19:10.862Z,34.22
2023-03-05T04:20:10.533Z,33.02
2023-03-05T04:21:08.212Z,31.21
2023-03-05T04:22:06.309Z,31.28
2023-03-05T04:23:03.742Z,32.43
2023-03-05T04:24:01.127Z,34.02
2023-03-05T04:24:58.894Z,33.08
2023-03-05T04:25:56.318Z,33.62
2023-03-05T04:26:53.700Z,32.26
2023-03-05T04:27:51.396Z,31.63
2023-03-05T04:28:49.324Z,31.92
2023-03-05T04:29:46.755Z,30.88
2023-03-05T04:30:44.093Z,32.49
2023-03-05T04:31:41.509Z,32.52
2023-03-05T04:32:38.962Z,32.17
2023-03-05T04:33:36.336Z,32.73
2023-03-05T04:34:33.692Z,32.85
2023-03-05T04:35:31.122Z,31.89
2023-03-05T04:36:28.512Z,32.29
2023-03-05T04:37:26.245Z,32.40
2023-03-05T04:38:23.580Z,32.81
2023-03-05T04:39:21.018Z,33.08
2023-03-05T04:40:19.421Z,31.99
2023-03-05T04:41:16.853Z,30.31
2023-03-05T04:42:16.270Z,31.33
2023-03-05T04:43:13.737Z,30.14
2023-03-05T04:44:11.141Z,32.46
2023-03-05T04:45:08.859Z,31.38
2023-03-05T04:46:06.230Z,29.56
2023-03-05T04:47:03.624Z,30.99
2023-03-05T04:48:01.026Z,32.36
2023-03-05T04:48:59.207Z,34.29
2023-03-05T04:49:56.557Z,34.97
2023-03-05T04:50:53.909Z,34.86
2023-03-05T04:51:51.315Z,37.39
2023-03-05T04:52:48.743Z,35.24
2023-03-05T04:53:46.095Z,35.40
2023-03-05T04:54:44.880Z,33.44
2023-03-05T04:55:42.850Z,32.93
2023-03-05T04:56:40.184Z,31.81
2023-03-05T04:57:37.673Z,32.16
2023-03-05T04:58:35.088Z,32.60
2023-03-05T04:59:32.774Z,31.83
2023-03-05T05:00:30.250Z,33.77
2023-03-05T05:01:27.676Z,33.27
2023-03-05T05:02:25.241Z,32.10
2023-03-05T05:03:22.660Z,31.96
2023-03-05T05:04:20.046Z,31.41
2023-03-05T05:05:21.546Z,31.32
2023-03-05T05:06:18.912Z,30.97
2023-03-05T05:07:16.343Z,32.10
2023-03-05T05:08:13.781Z,33.59
2023-03-05T05:09:11.132Z,34.32
2023-03-05T05:10:09.819Z,32.83
2023-03-05T05:11:08.180Z,32.04
2023-03-05T05:12:05.612Z,30.89
2023-03-05T05:13:03.065Z,32.06
2023-03-05T05:14:00.373Z,31.72
2023-03-05T05:14:57.852Z,31.33
2023-03-05T05:15:56.086Z,32.03
2023-03-05T05:16:53.609Z,33.41
2023-03-05T05:17:51.073Z,34.05
2023-03-05T05:18:48.512Z,32.60
2023-03-05T05:19:45.828Z,32.36
2023-03-05T05:20:43.275Z,32.13
2023-03-05T05:21:40.666Z,31.14
2023-03-05T05:22:38.076Z,33.06
2023-03-05T05:23:35.443Z,31.93
2023-03-05T05:24:32.804Z,30.91
2023-03-05T05:25:30.133Z,31.69
2023-03-05T05:26:27.929Z,30.77
2023-03-05T05:27:25.313Z,31.93
2023-03-05T05:28:22.688Z,32.01
2023-03-05T05:29:20.020Z,32.61
2023-03-05T05:30:17.366Z,33.26
2023-03-05T05:31:16.183Z,33.96
2023-03-05T05:32:13.582Z,34.11
2023-03-05T05:33:11.006Z,34.04
2023-03-05T05:34:08.425Z,34.97
2023-03-05T05:35:05.969Z,35.37
2023-03-05T05:36:07.560Z,33.90
2023-03-05T05:37:04.890Z,33.89
2023-03-05T05:38:02.223Z,32.53
2023-03-05T05:38:59.543Z,34.04
2023-03-05T05:39:56.885Z,33.99
2023-03-05T05:40:54.157Z,34.82
2023-03-05T05:41:52.722Z,32.13
2023-03-05T05:42:50.054Z,34.18
2023-03-05T05:43:48.860Z,35.22
2023-03-05T05:44:47.621Z,35.23
2023-03-05T05:45:45.460Z,35.04
2023-03-05T05:46:42.991Z,33.45
2023-03-05T05:47:40.410Z,33.00
2023-03-05T05:48:37.839Z,30.85
2023-03-05T05:49:35.240Z,30.27
2023-03-05T05:50:32.653Z,29.90
2023-03-05T05:51:30.016Z,28.90
2023-03-05T05:52:27.429Z,28.19
2023-03-05T05:53:25.041Z,28.71
2023-03-05T05:54:22.356Z,27.66
2023-03-05T05:55:19.768Z,28.14
2023-03-05T05:56:18.153Z,28.65
2023-03-05T05:57:16.060Z,28.60
2023-03-05T05:58:13.527Z,29.46
2023-03-05T05:59:10.961Z,30.22
2023-03-05T06:00:10.040Z,28.28
2023-03-05T06:01:14.405Z,28.81
2023-03-05T06:02:11.764Z,28.33
2023-03-05T06:03:09.171Z,28.41
2023-03-05T06:04:06.498Z,27.62
2023-03-05T06:05:03.917Z,27.25
2023-03-05T06:06:01.952Z,26.88
2023-03-05T06:06:59.995Z,29.41
2023-03-05T06:07:57.481Z,28.49
2023-03-05T06:08:55.456Z,28.51
2023-03-05T06:09:52.732Z,29.41
2023-03-05T06:10:56.166Z,27.46
2023-03-05T06:11:53.535Z,27.28
2023-03-05T06:12:50.857Z,28.14
2023-03-05T06:13:49.043Z,26.78
2023-03-05T06:14:46.408Z,26.47
2023-03-05T06:15:43.688Z,27.44
2023-03-05T06:16:41.593Z,27.58
2023-03-05T06:17:39.175Z,27.75
2023-03-05T06:18:36.629Z,28.16
2023-03-05T06:19:33.986Z,27.26
2023-03-05T06:20:31.297Z,27.17
2023-03-05T06:21:28.636Z,27.59
2023-03-05T06:22:25.956Z,27.19
2023-03-05T06:23:23.712Z,27.27
2023-03-05T06:24:22.325Z,28.42
2023-03-05T06:25:19.727Z,27.26
2023-03-05T06:26:19.085Z,28.98
2023-03-05T06:27:16.412Z,28.93
2023-03-05T06:28:13.850Z,29.18
2023-03-05T06:29:11.130Z,28.82
2023-03-05T06:30:10.356Z,29.66
2023-03-05T06:31:10.190Z,29.58
2023-03-05T06:32:07.635Z,30.07
2023-03-05T06:33:04.936Z,31.76
2023-03-05T06:34:02.360Z,29.67
2023-03-05T06:34:59.656Z,31.34
2023-03-05T06:35:57.483Z,31.58
2023-03-05T06:36:54.837Z,31.11
2023-03-05T06:37:52.180Z,31.14
2023-03-05T06:38:51.068Z,31.42
2023-03-05T06:39:49.439Z,30.57
2023-03-05T06:40:46.843Z,30.00
2023-03-05T06:41:44.799Z,30.84
2023-03-05T06:42:42.119Z,30.48
2023-03-05T06:43:40.843Z,31.07
2023-03-05T06:44:40.311Z,32.21
2023-03-05T06:45:38.233Z,29.89
2023-03-05T06:46:37.537Z,31.49
2023-03-05T06:47:35.191Z,30.99
2023-03-05T06:48:32.648Z,31.64
2023-03-05T06:49:29.997Z,30.64
2023-03-05T06:50:27.409Z,32.03
2023-03-05T06:51:29.248Z,32.42
2023-03-05T06:52:26.637Z,32.26
2023-03-05T06:53:24.940Z,32.23
2023-03-05T06:54:22.306Z,32.24
2023-03-05T06:55:19.693Z,31.60
2023-03-05T06:56:17.694Z,31.52
2023-03-05T06:57:15.005Z,31.07
2023-03-05T06:58:12.361Z,31.45
2023-03-05T06:59:11.306Z,30.91
2023-03-05T07:00:12.081Z,30.36
2023-03-05T07:01:09.487Z,31.68
2023-03-05T07:02:09.931Z,30.81
2023-03-05T07:03:07.215Z,30.59
2023-03-05T07:04:05.045Z,30.77
2023-03-05T07:05:02.344Z,30.83
2023-03-05T07:06:02.053Z,31.09
2023-03-05T07:07:00.511Z,30.83
2023-03-05T07:07:57.847Z,29.99
2023-03-05T07:08:56.299Z,30.47
2023-03-05T07:09:53.837Z,31.54
2023-03-05T07:10:51.188Z,32.42
2023-03-05T07:11:48.479Z,31.92
2023-03-05T07:12:45.835Z,32.09
2023-03-05T07:13:43.634Z,32.25
2023-03-05T07:14:41.056Z,31.29
2023-03-05T07:15:39.838Z,31.72
2023-03-05T07:16:37.268Z,33.29
2023-03-05T07:17:34.620Z,32.09
2023-03-05T07:18:32.156Z,31.91
2023-03-05T07:19:29.520Z,31.83
2023-03-05T07:20:26.898Z,31.53
2023-03-05T07:21:25.599Z,32.04
2023-03-05T07:22:22.909Z,31.25
2023-03-05T07:23:20.257Z,28.22
2023-03-05T07:24:17.552Z,28.98
2023-03-05T07:25:19.403Z,27.31
2023-03-05T07:26:17.050Z,27.18
2023-03-05T07:27:14.358Z,28.00
2023-03-05T07:28:11.721Z,27.72
2023-03-05T07:29:09.381Z,26.67
2023-03-05T07:30:07.335Z,26.49
2023-03-05T07:31:06.354Z,26.66
2023-03-05T07:32:03.900Z,28.31
2023-03-05T07:33:02.160Z,28.78
2023-03-05T07:34:01.528Z,26.52
2023-03-05T07:34:58.868Z,25.38
2023-03-05T07:35:56.287Z,25.52
2023-03-05T07:36:53.689Z,28.39
2023-03-05T07:37:51.783Z,28.04
2023-03-05T07:38:49.224Z,27.95
2023-03-05T07:39:47.393Z,29.32
2023-03-05T07:40:44.801Z,30.61
2023-03-05T07:41:42.199Z,31.35
2023-03-05T07:42:39.607Z,30.12
2023-03-05T07:43:37.226Z,30.52
2023-03-05T07:44:34.586Z,29.43
2023-03-05T07:45:32.197Z,30.22
2023-03-05T07:46:30.890Z,29.10
2023-03-05T07:47:28.275Z,25.85
2023-03-05T07:48:26.100Z,24.20
2023-03-05T07:49:23.848Z,23.89
2023-03-05T07:50:21.126Z,23.83
2023-03-05T07:51:20.119Z,23.63
2023-03-05T07:52:17.774Z,23.82
2023-03-05T07:53:15.929Z,25.27
2023-03-05T07:54:13.280Z,24.69
2023-03-05T07:55:10.825Z,22.69
2023-03-05T07:56:08.527Z,23.95
2023-03-05T07:57:06.792Z,23.89
2023-03-05T07:58:04.130Z,24.81
2023-03-05T07:59:02.851Z,23.99
2023-03-05T08:00:00.200Z,24.77
2023-03-05T08:00:57.556Z,23.77
2023-03-05T08:01:54.932Z,23.85
2023-03-05T08:02:52.366Z,24.78
2023-03-05T08:03:49.760Z,24.40
2023-03-05T08:04:47.093Z,23.69
2023-03-05T08:05:44.453Z,22.74
2023-03-05T08:06:42.144Z,23.31
2023-03-05T08:07:39.485Z,22.75
2023-03-05T08:08:36.956Z,22.05
2023-03-05T08:09:34.261Z,23.70
2023-03-05T08:10:31.621Z,22.64
2023-03-05T08:11:28.999Z,22.86
2023-03-05T08:12:26.410Z,24.67
2023-03-05T08:13:23.713Z,25.12
2023-03-05T08:14:21.149Z,24.16
2023-03-05T08:15:18.614Z,24.23
2023-03-05T08:16:17.894Z,23.13
2023-03-05T08:17:15.249Z,23.30
2023-03-05T08:18:13.853Z,23.64
2023-03-05T08:19:11.279Z,22.97
2023-03-05T08:20:11.855Z,22.86
2023-03-05T08:21:18.213Z,23.30
2023-03-05T08:22:20.484Z,23.91
2023-03-05T08:23:17.778Z,22.91
2023-03-05T08:24:15.219Z,23.03
2023-03-05T08:25:13.012Z,23.01
2023-03-05T08:26:16.999Z,22.57
2023-03-05T08:27:14.353Z,22.56
2023-03-05T08:28:11.678Z,22.81
2023-03-05T08:29:10.308Z,23.12
2023-03-05T08:30:08.529Z,22.80
2023-03-05T08:31:09.589Z,22.42
2023-03-05T08:32:07.052Z,22.38
2023-03-05T08:33:04.505Z,22.22
2023-03-05T08:34:02.711Z,21.98
2023-03-05T08:35:00.072Z,22.69
2023-03-05T08:35:57.465Z,24.31
2023-03-05T08:36:54.872Z,25.33
2023-03-05T08:37:52.348Z,25.31
2023-03-05T08:38:50.679Z,24.51
2023-03-05T08:39:50.843Z,24.73
2023-03-05T08:40:48.319Z,23.49
2023-03-05T08:41:46.010Z,23.23
2023-03-05T08:42:43.884Z,23.48
2023-03-05T08:43:41.272Z,23.29
2023-03-05T08:44:38.610Z,23.73
2023-03-05T08:45:35.964Z,23.68
2023-03-05T08:46:33.414Z,22.10
2023-03-05T08:47:30.794Z,23.55
2023-03-05T08:48:28.680Z,23.44
2023-03-05T08:49:26.143Z,23.12
2023-03-05T08:50:23.704Z,23.32
2023-03-05T08:51:25.762Z,22.63
2023-03-05T08:52:23.255Z,22.91
2023-03-05T08:53:20.582Z,24.38
2023-03-05T08:54:17.954Z,24.35
2023-03-05T08:55:15.359Z,23.60
2023-03-05T08:56:12.942Z,22.90
2023-03-05T08:57:10.288Z,23.38
2023-03-05T08:58:10.689Z,23.94
2023-03-05T08:59:08.700Z,23.94
2023-03-05T09:00:07.398Z,23.57
2023-03-05T09:01:05.253Z,22.78
2023-03-05T09:02:02.852Z,23.15
2023-03-05T09:03:00.333Z,24.24
2023-03-05T09:03:59.149Z,23.64
2023-03-05T09:04:56.492Z,24.61
2023-03-05T09:05:56.571Z,24.17
2023-03-05T09:06:53.895Z,24.24
2023-03-05T09:07:51.292Z,23.12
2023-03-05T09:08:48.651Z,24.51
2023-03-05T09:09:45.967Z,24.10
2023-03-05T09:10:43.755Z,24.23
2023-03-05T09:11:41.189Z,23.62
2023-03-05T09:12:38.563Z,22.51
2023-03-05T09:13:36.580Z,23.21
2023-03-05T09:14:33.898Z,22.91
2023-03-05T09:15:31.406Z,22.24
2023-03-05T09:16:28.966Z,23.74
2023-03-05T09:17:26.390Z,24.09
2023-03-05T09:18:23.830Z,23.73
2023-03-05T09:19:21.184Z,23.10
2023-03-05T09:20:18.786Z,23.63
2023-03-05T09:21:17.692Z,24.21
2023-03-05T09:22:15.299Z,24.57
2023-03-05T09:23:12.585Z,23.66
2023-03-05T09:24:10.231Z,24.04
2023-03-05T09:25:08.229Z,23.66
2023-03-05T09:26:06.276Z,24.38
2023-03-05T09:27:03.729Z,24.17
2023-03-05T09:28:01.082Z,24.52
2023-03-05T09:28:58.391Z,23.84
2023-03-05T09:29:55.697Z,24.87
2023-03-05T09:30:53.025Z,25.38
2023-03-05T09:31:51.237Z,25.13
2023-03-05T09:32:48.702Z,25.38
2023-03-05T09:33:47.189Z,24.74
2023-03-05T09:34:44.593Z,25.05
2023-03-05T09:35:41.963Z,24.71
2023-03-05T09:36:39.352Z,24.69
2023-03-05T09:37:36.704Z,24.48
2023-03-05T09:38:34.031Z,24.26
2023-03-05T09:39:31.440Z,24.24
2023-03-05T09:40:32.033Z,24.05
2023-03-05T09:41:47.461Z,23.94
2023-03-05T09:42:54.390Z,24.21
2023-03-05T09:44:03.804Z,24.50
2023-03-05T09:45:14.033Z,22.84
2023-03-05T09:46:39.154Z,24.06
2023-03-05T09:47:46.618Z,23.58
2023-03-05T09:48:43.970Z,23.05
2023-03-05T09:49:53.174Z,23.25
2023-03-05T09:51:04.802Z,24.80
2023-03-05T09:52:07.926Z,23.78
2023-03-05T09:53:17.388Z,23.04
2023-03-05T09:54:21.568Z,24.70
2023-03-05T09:55:34.135Z,24.73
2023-03-05T09:56:41.773Z,23.89
2023-03-05T09:57:42.605Z,23.96
2023-03-05T09:58:39.970Z,22.99
2023-03-05T10:00:12.691Z,23.97
2023-03-05T10:01:15.904Z,23.67
2023-03-05T10:02:18.326Z,23.44
2023-03-05T10:03:18.477Z,23.73
2023-03-05T10:04:45.797Z,24.11
2023-03-05T10:05:49.288Z,24.80
2023-03-05T10:06:49.469Z,23.20
2023-03-05T10:07:54.645Z,22.92
2023-03-05T10:08:54.979Z,22.79
2023-03-05T10:09:58.245Z,22.23
2023-03-05T10:10:55.807Z,22.12
2023-03-05T10:12:17.416Z,23.26
2023-03-05T10:13:24.015Z,21.65
2023-03-05T10:14:30.572Z,22.43
2023-03-05T10:15:35.678Z,21.92
2023-03-05T10:16:35.854Z,21.33
2023-03-05T10:17:36.081Z,21.03
2023-03-05T10:18:43.240Z,20.33
2023-03-05T10:19:43.303Z,21.85
2023-03-05T10:20:50.393Z,21.56
2023-03-05T10:21:53.788Z,21.33
2023-03-05T10:22:51.110Z,20.81
2023-03-05T10:23:58.866Z,20.89
2023-03-05T10:25:14.306Z,21.14
2023-03-05T10:26:21.629Z,21.45
2023-03-05T10:27:35.038Z,21.26
2023-03-05T10:28:44.390Z,21.64
2023-03-05T10:29:58.088Z,21.00
2023-03-05T10:31:01.213Z,21.56
2023-03-05T10:32:04.460Z,20.34
2023-03-05T10:33:01.924Z,20.22
2023-03-05T10:33:59.201Z,21.01
2023-03-05T10:35:11.704Z,21.33
2023-03-05T10:36:11.782Z,19.57
2023-03-05T10:37:27.692Z,19.77
2023-03-05T10:38:31.518Z,19.64
2023-03-05T10:39:54.980Z,19.95
2023-03-05T10:40:54.718Z,21.32
2023-03-05T10:42:05.913Z,20.00
2023-03-05T10:43:20.419Z,18.96
2023-03-05T10:44:27.805Z,19.17
2023-03-05T10:45:29.560Z,18.40
2023-03-05T10:46:32.307Z,18.45
2023-03-05T10:47:29.661Z,17.92
2023-03-05T10:48:43.980Z,17.69
2023-03-05T10:49:48.441Z,18.57
2023-03-05T10:50:52.121Z,17.75
2023-03-05T10:51:49.509Z,18.33
2023-03-05T10:52:51.923Z,18.37
2023-03-05T10:53:55.994Z,18.38
2023-03-05T10:54:53.376Z,17.95
2023-03-05T10:55:56.093Z,18.82
2023-03-05T10:57:15.799Z,18.20
2023-03-05T10:58:15.430Z,16.90
2023-03-05T10:59:12.735Z,16.54
2023-03-05T11:00:16.168Z,17.49
2023-03-05T11:01:13.891Z,16.70
2023-03-05T11:02:11.218Z,16.25
2023-03-05T11:03:10.242Z,17.51
2023-03-05T11:04:25.085Z,16.14
2023-03-05T11:05:31.344Z,17.16
2023-03-05T11:06:36.420Z,16.73
2023-03-05T11:07:35.180Z,15.87
2023-03-05T11:08:36.564Z,15.34
2023-03-05T11:09:33.997Z,15.14
2023-03-05T11:10:31.372Z,16.96
2023-03-05T11:11:31.027Z,16.90
2023-03-05T11:12:38.161Z,16.84
2023-03-05T11:13:42.534Z,17.43
2023-03-05T11:14:41.940Z,17.11
2023-03-05T11:15:39.277Z,17.08
2023-03-05T11:16:47.071Z,17.80
2023-03-05T11:17:49.020Z,17.76
2023-03-05T11:18:46.875Z,17.70
2023-03-05T11:19:44.362Z,17.64
2023-03-05T11:20:41.776Z,18.00
2023-03-05T11:21:39.109Z,17.83
2023-03-05T11:22:36.506Z,17.94
2023-03-05T11:23:33.852Z,19.14
2023-03-05T11:24:31.172Z,18.71
2023-03-05T11:25:28.592Z,18.67
2023-03-05T11:26:25.961Z,19.17
2023-03-05T11:27:32.587Z,18.92
2023-03-05T11:28:35.107Z,18.88
2023-03-05T11:29:34.727Z,19.24
2023-03-05T11:30:34.560Z,19.19
2023-03-05T11:31:33.599Z,19.03
2023-03-05T11:32:31.580Z,19.49
2023-03-05T11:33:29.588Z,17.22
2023-03-05T11:34:35.055Z,17.51
2023-03-05T11:35:34.442Z,16.96
2023-03-05T11:36:43.259Z,18.29
2023-03-05T11:37:40.550Z,17.84
2023-03-05T11:38:56.527Z,17.85
2023-03-05T11:40:12.362Z,16.64
2023-03-05T11:41:09.904Z,17.12
2023-03-05T11:42:13.886Z,17.01
2023-03-05T11:43:19.706Z,16.52
2023-03-05T11:44:26.792Z,16.39
2023-03-05T11:45:26.010Z,18.01
2023-03-05T11:46:24.204Z,17.68
2023-03-05T11:47:45.372Z,17.33
2023-03-05T11:48:45.641Z,16.15
2023-03-05T11:49:44.997Z,16.03
2023-03-05T11:50:43.908Z,14.77
2023-03-05T11:51:45.680Z,14.36
2023-03-05T11:52:46.374Z,14.80
2023-03-05T11:53:47.198Z,14.50
2023-03-05T11:55:03.293Z,13.86
2023-03-05T11:56:05.695Z,13.83
2023-03-05T11:57:03.844Z,13.40
2023-03-05T11:58:01.182Z,13.89
2023-03-05T11:59:14.686Z,13.52
2023-03-05T12:00:16.160Z,13.70
2023-03-05T12:01:22.667Z,15.28
2023-03-05T12:02:23.304Z,16.23
2023-03-05T12:03:24.821Z,15.77
2023-03-05T12:04:22.518Z,14.96
2023-03-05T12:05:20.609Z,15.44
2023-03-05T12:06:17.883Z,15.11
2023-03-05T12:07:18.200Z,16.18
2023-03-05T12:08:23.065Z,18.14
2023-03-05T12:09:20.367Z,17.26
2023-03-05T12:10:20.907Z,18.61
2023-03-05T12:11:20.990Z,16.78
2023-03-05T12:12:29.635Z,17.73
2023-03-05T12:13:41.677Z,17.21
2023-03-05T12:14:46.999Z,17.06
2023-03-05T12:15:50.188Z,15.81
2023-03-05T12:17:10.612Z,16.11
2023-03-05T12:18:25.398Z,16.19
2023-03-05T12:19:25.830Z,15.04
2023-03-05T12:20:41.940Z,14.45
2023-03-05T12:21:41.505Z,15.85
2023-03-05T12:22:40.888Z,16.19
2023-03-05T12:24:07.306Z,15.51
2023-03-05T12:25:17.058Z,16.29
2023-03-05T12:26:14.805Z,16.40
2023-03-05T12:27:15.713Z,16.35
2023-03-05T12:28:31.599Z,16.09
2023-03-05T12:29:30.987Z,15.98
2023-03-05T12:30:34.041Z,17.37
2023-03-05T12:31:38.025Z,18.50
2023-03-05T12:32:35.571Z,18.58
2023-03-05T12:33:32.911Z,18.29
2023-03-05T12:34:44.971Z,18.98
2023-03-05T12:35:42.865Z,18.64
2023-03-05T12:36:40.882Z,18.82
2023-03-05T12:37:44.076Z,18.81
2023-03-05T12:38:41.584Z,19.56
2023-03-05T12:39:45.257Z,18.00
2023-03-05T12:40:43.007Z,18.65
2023-03-05T12:41:40.595Z,18.59
2023-03-05T12:42:37.903Z,18.82
2023-03-05T12:43:36.273Z,18.88